Terminal Aerodrome Forecast
Issued by NWS Memphis, TN

Home | Current Version | Previous Version | Text Only | Print | Product List | Glossary On
Versions: 1 2 3 4 5 6 7 8 9 10 11 12 13 14 15 16 17 18
000
FTUS44 KMEG 250308 AAB
TAFJBR
TAF AMD
KJBR 250308Z 2503/2524 14007KT P6SM -SHRA SCT070 OVC110
     FM250500 16007KT P6SM VCSH SCT070 BKN150
     FM251500 20015G25KT P6SM VCTS SCT040CB BKN200=

USA.gov is the U.S. government's official web portal to all federal, state and local government web resources and services.